Time;durP1;ratioP1;P1;durP2;ratioP2;P2;SDS_P1;SDS_P2;PMS_P1;PMS_P2;Temp;Humidity;BMP_temperature;BMP_pressure;BME280_temperature;BME280_humidity;BME280_pressure;Samples;Min_cycle;Max_cycle;Signal;HPM_P1;HPM_P2
2022/11/09 00:01:40;;;;;;;;;;;;;;;7.67;100.00;101036.77;1443585;89;21554;-80
2022/11/09 00:04:10;;;;;;;35.40;23.57;;;;;;;7.62;100.00;101037.62;1404943;90;20992;-81
2022/11/09 00:06:43;;;;;;;46.73;26.67;;;;;;;7.58;100.00;101040.09;1404810;92;21413;-80
2022/11/09 00:09:09;;;;;;;33.57;22.47;;;;;;;7.58;100.00;101040.09;1400664;92;21616;-83
2022/11/09 00:14:31;;;;;;;32.00;22.03;;;;;;;7.55;100.00;101038.17;1398766;92;21619;-81
2022/11/09 00:16:58;;;;;;;32.23;20.27;;;;;;;7.58;100.00;101041.89;1400281;92;21458;-81
2022/11/09 00:19:29;;;;;;;32.07;20.93;;;;;;;7.58;100.00;101038.78;1380225;93;21370;-80
2022/11/09 00:22:02;;;;;;;27.73;19.90;;;;;;;7.58;100.00;101045.36;1441421;89;22349;-82
2022/11/09 00:24:30;;;;;;;26.83;18.77;;;;;;;7.63;100.00;101040.60;1440426;89;21584;-80
2022/11/09 00:27:05;;;;;;;39.20;22.87;;;;;;;7.61;100.00;101039.87;1446746;89;22286;-78
2022/11/09 00:29:40;;;;;;;32.83;22.60;;;;;;;7.64;100.00;101038.32;1445747;89;21729;-81
2022/11/09 00:32:12;;;;;;;37.73;26.40;;;;;;;7.67;100.00;101035.45;1446081;89;21386;-81
2022/11/09 00:34:38;;;;;;;43.87;24.60;;;;;;;7.69;100.00;101034.04;1443690;89;21363;-81
2022/11/09 00:37:15;;;;;;;37.97;24.37;;;;;;;7.65;100.00;101037.39;1441938;89;21439;-80
2022/11/09 00:39:42;;;;;;;36.27;22.97;;;;;;;7.63;100.00;101038.45;1537257;89;21201;-81
2022/11/09 00:42:11;;;;;;;30.87;21.20;;;;;;;7.63;100.00;101041.92;1405592;89;21867;-82
2022/11/09 00:44:43;;;;;;;30.03;19.80;;;;;;;7.63;100.00;101032.70;1449190;89;21519;-81
2022/11/09 00:47:09;;;;;;;26.77;18.10;;;;;;;7.58;100.00;101034.83;1438608;89;21801;-81
2022/11/09 00:49:39;;;;;;;25.53;18.83;;;;;;;7.55;100.00;101031.11;1447035;89;22021;-79
2022/11/09 00:52:08;;;;;;;22.67;17.20;;;;;;;7.54;100.00;101028.12;1453292;88;22079;-80
2022/11/09 00:54:40;;;;;;;29.73;18.40;;;;;;;7.48;100.00;101031.21;1468049;87;21908;-80
2022/11/09 00:57:13;;;;;;;30.67;18.83;;;;;;;7.45;100.00;101024.82;1454517;88;21481;-79
2022/11/09 00:59:39;;;;;;;28.93;17.03;;;;;;;7.43;100.00;101022.80;1419637;89;21358;-82
2022/11/09 01:02:08;;;;;;;28.37;18.73;;;;;;;7.40;100.00;101026.98;1449725;88;21366;-81
2022/11/09 01:04:38;;;;;;;28.37;17.10;;;;;;;7.35;100.00;101024.67;1442206;87;21444;-80
2022/11/09 01:07:07;;;;;;;23.27;17.90;;;;;;;7.35;100.00;101020.72;1442788;89;21463;-79
2022/11/09 01:09:33;;;;;;;18.53;14.77;;;;;;;7.36;100.00;101029.45;1423893;89;21370;-79
2022/11/09 01:11:59;;;;;;;20.23;15.30;;;;;;;7.33;100.00;101028.36;1442509;89;21481;-79
2022/11/09 01:14:25;;;;;;;23.27;16.50;;;;;;;7.31;100.00;101018.41;1454923;88;21921;-79
2022/11/09 01:16:51;;;;;;;23.57;15.20;;;;;;;7.34;100.00;101014.27;1462161;88;22398;-79
2022/11/09 01:19:21;;;;;;;31.13;17.63;;;;;;;7.28;100.00;101016.00;1445231;88;21560;-81
2022/11/09 01:21:47;;;;;;;32.40;18.10;;;;;;;7.24;100.00;101013.59;1452417;88;21369;-82
2022/11/09 01:24:15;;;;;;;29.57;15.90;;;;;;;7.19;100.00;101016.19;1452660;88;21457;-80
2022/11/09 01:26:40;;;;;;;22.83;15.90;;;;;;;7.14;100.00;101009.97;1455253;88;21391;-80
2022/11/09 01:29:19;;;;;;;21.83;16.40;;;;;;;7.09;100.00;101014.71;1452590;88;21329;-79
2022/11/09 01:31:48;;;;;;;22.37;16.20;;;;;;;7.06;100.00;101009.67;1452897;88;22360;-79
2022/11/09 01:34:17;;;;;;;21.17;16.00;;;;;;;7.06;100.00;101000.46;1453389;88;21428;-80
2022/11/09 01:36:43;;;;;;;19.63;15.07;;;;;;;7.07;100.00;101006.08;1450866;88;22485;-80
2022/11/09 01:39:38;;;;;;;21.27;16.10;;;;;;;7.10;100.00;101011.13;1457956;87;23467;-81
2022/11/09 01:42:05;;;;;;;25.37;17.67;;;;;;;7.14;100.00;101006.02;1471347;87;21573;-80
2022/11/09 01:44:37;;;;;;;32.10;17.10;;;;;;;7.14;100.00;100998.12;1403668;87;21390;-80
2022/11/09 01:47:24;;;;;;;30.23;15.17;;;;;;;7.11;100.00;100997.03;1461147;88;21307;-80
2022/11/09 01:50:01;;;;;;;26.77;15.97;;;;;;;7.05;100.00;100996.16;1566876;88;21220;-80
2022/11/09 01:52:42;;;;;;;25.13;16.63;;;;;;;6.99;100.00;100992.17;1412961;88;21950;-79
2022/11/09 01:55:24;;;;;;;25.32;16.32;;;;;;;6.96;100.00;100991.53;1465318;87;21556;-79
2022/11/09 01:58:18;;;;;;;18.63;14.27;;;;;;;6.95;100.00;100992.02;1472241;87;21416;-79
2022/11/09 02:00:47;;;;;;;18.03;14.07;;;;;;;6.92;100.00;100987.45;1479858;88;22960;-80
2022/11/09 02:03:43;;;;;;;22.60;15.17;;;;;;;6.89;100.00;100985.05;1533733;88;21933;-80
2022/11/09 02:06:14;;;;;;;20.60;14.50;;;;;;;6.86;100.00;100985.27;1417320;90;21456;-79
2022/11/09 02:08:46;;;;;;;22.10;14.97;;;;;;;6.85;100.00;100983.12;1427653;90;21339;-80
2022/11/09 02:11:19;;;;;;;20.40;14.67;;;;;;;6.87;100.00;100986.94;1422256;90;22416;-81
2022/11/09 02:14:09;;;;;;;23.90;15.47;;;;;;;6.87;100.00;100981.20;1426314;90;22277;-79
2022/11/09 02:16:40;;;;;;;20.53;14.33;;;;;;;6.87;100.00;100981.67;1442698;90;21604;-79
2022/11/09 02:19:07;;;;;;;21.33;16.40;;;;;;;6.80;100.00;100981.77;1447831;89;21293;-78
2022/11/09 02:21:33;;;;;;;21.10;15.83;;;;;;;6.80;100.00;100972.55;1481222;87;22304;-78
2022/11/09 02:23:59;;;;;;;19.30;15.40;;;;;;;6.82;100.00;100970.63;1483450;87;21367;-79
2022/11/09 02:26:48;;;;;;;21.30;15.43;;;;;;;6.85;100.00;100976.54;1452138;88;21639;-79
2022/11/09 02:29:25;;;;;;;20.33;14.87;;;;;;;6.88;100.00;100982.06;1439833;90;21523;-78
2022/11/09 02:31:55;;;;;;;21.70;14.20;;;;;;;6.90;100.00;100978.82;1437385;90;21563;-78
2022/11/09 02:34:24;;;;;;;20.20;13.93;;;;;;;6.91;100.00;100981.84;1437494;90;21911;-79
2022/11/09 02:36:51;;;;;;;24.60;16.17;;;;;;;6.90;100.00;100982.77;1420717;90;22388;-79
2022/11/09 02:39:22;;;;;;;25.87;15.93;;;;;;;6.86;100.00;100987.90;1413294;92;23180;-79
2022/11/09 02:41:53;;;;;;;17.90;13.38;;;;;;;6.85;100.00;100983.56;1419681;90;21325;-79
2022/11/09 02:44:19;;;;;;;;;;;;;;;6.82;100.00;100982.47;1438408;90;21515;-80
2022/11/09 02:46:45;;;;;;;19.03;14.50;;;;;;;6.80;100.00;100984.39;1444405;90;20917;-80
2022/11/09 02:49:11;;;;;;;17.90;13.33;;;;;;;6.78;100.00;100984.01;1442687;90;21443;-79
2022/11/09 02:51:37;;;;;;;21.87;14.93;;;;;;;6.80;100.00;100990.98;1433449;90;21901;-80
2022/11/09 02:54:04;;;;;;;19.47;14.37;;;;;;;6.82;100.00;100989.05;1428116;92;22464;-80
2022/11/09 02:56:30;;;;;;;19.40;14.57;;;;;;;6.83;100.00;100988.12;1427490;90;21500;-80
2022/11/09 02:58:56;;;;;;;19.70;14.00;;;;;;;6.81;100.00;100990.02;1468351;88;21748;-80
2022/11/09 03:01:22;;;;;;;19.77;14.50;;;;;;;6.79;100.00;100984.88;1476910;88;21545;-80
2022/11/09 03:03:48;;;;;;;16.90;13.13;;;;;;;6.80;100.00;100987.03;1471576;88;21457;-80
2022/11/09 03:06:14;;;;;;;20.43;14.57;;;;;;;6.80;100.00;100988.34;1466513;88;21552;-80
2022/11/09 03:08:40;;;;;;;18.63;13.20;;;;;;;6.75;100.00;100987.34;1450929;88;21574;-80
2022/11/09 03:11:07;;;;;;;19.87;14.73;;;;;;;6.73;100.00;100983.52;1438393;90;22493;-80
2022/11/09 03:13:33;;;;;;;19.77;12.90;;;;;;;6.73;100.00;100986.16;1450877;88;21433;-80
2022/11/09 03:16:07;;;;;;;20.27;14.23;;;;;;;6.77;100.00;100988.09;1455942;88;21293;-80
2022/11/09 03:18:33;;;;;;;18.47;13.00;;;;;;;6.81;100.00;100986.06;1458708;88;21435;-82
2022/11/09 03:21:05;;;;;;;17.60;14.37;;;;;;;6.85;100.00;100980.94;1443930;90;22197;-81
2022/11/09 03:23:32;;;;;;;23.33;16.17;;;;;;;6.87;100.00;100983.83;1441560;90;21545;-81
2022/11/09 03:25:58;;;;;;;25.53;15.37;;;;;;;6.88;100.00;100983.38;1450804;88;21340;-82
2022/11/09 03:28:25;;;;;;;31.10;16.00;;;;;;;6.88;100.00;100974.17;1430663;90;22285;-82
2022/11/09 03:30:51;;;;;;;21.40;14.37;;;;;;;6.88;100.00;100978.11;1446654;88;21414;-81
2022/11/09 03:33:17;;;;;;;26.23;15.50;;;;;;;6.85;100.00;100979.17;1461209;88;21471;-82
2022/11/09 03:35:43;;;;;;;21.27;14.80;;;;;;;6.83;100.00;100985.01;1450144;88;21369;-81
2022/11/09 03:38:09;;;;;;;17.97;14.07;;;;;;;6.84;100.00;100981.42;1443933;90;21398;-80
2022/11/09 03:40:36;;;;;;;19.70;14.33;;;;;;;6.86;100.00;100977.38;1428726;91;21345;-80
2022/11/09 03:43:02;;;;;;;20.67;15.57;;;;;;;6.87;100.00;100977.73;1454083;88;21324;-80
2022/11/09 03:45:28;;;;;;;20.20;15.20;;;;;;;6.88;100.00;100980.27;1463996;88;21434;-80
2022/11/09 03:47:59;;;;;;;20.63;14.77;;;;;;;6.91;100.00;100973.95;1470810;88;21397;-81
2022/11/09 03:50:27;;;;;;;24.70;16.95;;;;;;;6.93;100.00;100973.34;1460832;88;21369;-80
2022/11/09 03:52:54;;;;;;;29.00;16.10;;;;;;;6.92;100.00;100974.30;1429132;90;21516;-81
2022/11/09 03:55:20;;;;;;;27.30;15.60;;;;;;;6.91;100.00;100968.20;1446722;88;22234;-79
2022/11/09 03:57:46;;;;;;;22.17;15.47;;;;;;;6.91;100.00;100975.27;1447154;90;21332;-79
2022/11/09 04:00:16;;;;;;;26.47;16.43;;;;;;;6.85;100.00;100967.33;1458782;88;22043;-80
2022/11/09 04:02:42;;;;;;;19.90;15.08;;;;;;;6.84;100.00;100971.38;1439344;88;21539;-80
2022/11/09 04:05:09;;;;;;;25.57;16.80;;;;;;;6.82;100.00;100969.31;1451803;90;21562;-80
2022/11/09 04:07:36;;;;;;;20.40;15.57;;;;;;;6.80;100.00;100968.13;1450998;90;22315;-80
2022/11/09 04:10:04;;;;;;;19.93;15.20;;;;;;;6.84;100.00;100963.48;1458432;88;21449;-81
2022/11/09 04:12:30;;;;;;;24.37;16.83;;;;;;;6.88;100.00;100961.02;1457943;88;21435;-80
2022/11/09 04:14:57;;;;;;;23.40;16.27;;;;;;;6.91;100.00;100962.10;1448914;90;21487;-80
2022/11/09 04:17:23;;;;;;;26.43;15.87;;;;;;;6.94;100.00;100965.83;1440790;90;21902;-80
2022/11/09 04:19:49;;;;;;;27.37;15.97;;;;;;;6.91;100.00;100966.89;1452941;88;21451;-80
2022/11/09 04:22:15;;;;;;;18.70;14.00;;;;;;;6.90;100.00;100963.03;1452116;90;21909;-79
2022/11/09 04:24:41;;;;;;;25.87;14.23;;;;;;;6.89;100.00;100962.20;1443306;90;21369;-78
2022/11/09 04:27:07;;;;;;;21.43;13.87;;;;;;;6.88;100.00;100968.91;1447614;90;21420;-80
2022/11/09 04:29:33;;;;;;;22.93;16.03;;;;;;;6.90;100.00;100969.61;1443942;90;21602;-78
2022/11/09 04:32:00;;;;;;;18.13;13.60;;;;;;;6.89;100.00;100972.72;1452492;90;21443;-79
2022/11/09 04:34:25;;;;;;;21.37;13.73;;;;;;;6.90;100.00;100967.81;1457462;90;22279;-80
2022/11/09 04:36:52;;;;;;;26.27;13.80;;;;;;;6.96;100.00;100971.80;1448080;90;21442;-80
2022/11/09 04:39:18;;;;;;;25.93;14.80;;;;;;;6.91;100.00;100971.31;1455226;88;22306;-79
2022/11/09 04:41:44;;;;;;;27.33;16.00;;;;;;;6.90;100.00;100971.77;1468625;88;21456;-79
2022/11/09 04:44:10;;;;;;;22.87;15.27;;;;;;;6.90;100.00;100966.98;1455846;88;21369;-79
2022/11/09 04:46:36;;;;;;;22.73;14.60;;;;;;;6.89;100.00;100974.04;1466743;88;22262;-79
2022/11/09 04:49:02;;;;;;;20.40;14.33;;;;;;;6.89;100.00;100975.84;1453258;88;21355;-81
2022/11/09 04:51:28;;;;;;;22.53;16.20;;;;;;;6.87;100.00;100981.67;1446718;88;22464;-80
2022/11/09 04:53:55;;;;;;;24.67;15.27;;;;;;;6.88;100.00;100977.64;1448348;90;21420;-81
2022/11/09 04:56:21;;;;;;;22.53;14.57;;;;;;;6.92;100.00;100984.83;1454618;90;21414;-80
2022/11/09 04:58:48;;;;;;;22.27;14.50;;;;;;;6.94;100.00;100984.25;1448099;90;21333;-80
2022/11/09 05:01:14;;;;;;;27.23;14.87;;;;;;;6.94;100.00;100989.52;1439832;90;21302;-81
2022/11/09 05:03:41;;;;;;;30.03;16.17;;;;;;;6.91;100.00;100985.78;1451338;88;21369;-79
2022/11/09 05:08:54;;;;;;;22.83;16.40;;;;;;;6.83;100.00;100990.27;1448065;90;21318;-80
2022/11/09 05:11:21;;;;;;;27.60;16.93;;;;;;;6.82;100.00;100990.37;1376534;90;21295;-80
2022/11/09 05:13:47;;;;;;;23.20;14.90;;;;;;;6.81;100.00;100990.02;1507563;90;21376;-80
2022/11/09 05:16:16;;;;;;;21.03;14.40;;;;;;;6.81;100.00;100988.70;1447970;88;21368;-79
2022/11/09 05:18:42;;;;;;;20.13;14.33;;;;;;;6.83;100.00;100990.75;1476567;88;21426;-80
2022/11/09 05:21:08;;;;;;;19.90;14.23;;;;;;;6.85;100.00;100983.56;1450011;88;21442;-80
2022/11/09 05:26:19;;;;;;;30.83;14.77;;;;;;;6.89;100.00;100991.62;1437286;90;21384;-80
2022/11/09 05:28:45;;;;;;;26.20;16.37;;;;;;;6.94;100.00;100989.52;1438720;91;21434;-80
2022/11/09 05:31:12;;;;;;;35.13;16.20;;;;;;;6.97;100.00;100991.92;1436724;90;21420;-79
2022/11/09 05:33:38;;;;;;;22.77;16.50;;;;;;;6.97;100.00;100995.39;1433569;91;21937;-80
2022/11/09 05:36:05;;;;;;;34.50;15.87;;;;;;;6.97;100.00;100996.70;1436264;91;22306;-80
2022/11/09 05:38:31;;;;;;;20.07;14.90;;;;;;;6.97;100.00;100995.87;1438941;90;21559;-79
2022/11/09 05:40:58;;;;;;;22.43;15.50;;;;;;;6.98;100.00;100998.85;1441958;88;22461;-80
2022/11/09 05:43:24;;;;;;;21.87;15.70;;;;;;;6.97;100.00;100999.81;1459247;88;21415;-79
2022/11/09 05:45:50;;;;;;;23.93;15.40;;;;;;;6.97;100.00;100998.50;1445120;88;21341;-79
2022/11/09 05:48:17;;;;;;;23.17;16.37;;;;;;;7.01;100.00;101006.05;1453152;88;21459;-79
2022/11/09 05:50:44;;;;;;;26.03;16.07;;;;;;;7.04;100.00;101010.73;1452602;88;21346;-79
2022/11/09 05:53:11;;;;;;;27.07;17.33;;;;;;;7.03;100.00;101002.00;1439397;88;21356;-79
2022/11/09 05:55:38;;;;;;;25.23;18.13;;;;;;;7.04;100.00;101010.25;1444118;88;22147;-80
2022/11/09 05:58:05;;;;;;;25.23;18.63;;;;;;;7.04;100.00;101005.47;1449692;90;21406;-83
2022/11/09 06:00:31;;;;;;;24.33;17.60;;;;;;;7.03;100.00;101003.80;1453353;88;21347;-81
2022/11/09 06:03:04;;;;;;;21.80;15.73;;;;;;;7.03;100.00;101003.80;1437401;90;22074;-80
2022/11/09 06:05:33;;;;;;;20.07;15.10;;;;;;;7.05;100.00;101008.45;1453155;88;21377;-81
2022/11/09 06:08:09;;;;;;;21.53;15.00;;;;;;;7.06;100.00;101008.36;1436471;89;21361;-80
2022/11/09 06:10:36;;;;;;;21.30;15.33;;;;;;;7.09;100.00;101012.56;1466110;88;21309;-78
2022/11/09 06:13:02;;;;;;;23.83;16.47;;;;;;;7.08;100.00;101009.09;1463065;88;21390;-79
2022/11/09 06:15:28;;;;;;;23.90;16.93;;;;;;;7.09;100.00;101018.66;1452943;88;22344;-79
2022/11/09 06:17:56;;;;;;;25.53;17.63;;;;;;;7.10;100.00;101015.55;1443521;90;21472;-78
2022/11/09 06:20:26;;;;;;;22.30;16.17;;;;;;;7.07;100.00;101015.29;1446869;88;21279;-79
2022/11/09 06:22:58;;;;;;;25.53;17.53;;;;;;;7.06;100.00;101013.63;1455246;88;21376;-80
2022/11/09 06:25:24;;;;;;;21.77;16.17;;;;;;;7.04;100.00;101014.20;1452360;89;21488;-81
2022/11/09 06:27:54;;;;;;;23.60;16.50;;;;;;;7.02;100.00;101021.39;1440715;88;22425;-78
2022/11/09 06:30:21;;;;;;;22.57;15.20;;;;;;;7.03;100.00;101024.38;1435577;90;21941;-77
2022/11/09 06:32:47;;;;;;;26.63;16.47;;;;;;;7.04;100.00;101027.36;1408260;88;21590;-80
2022/11/09 06:35:14;;;;;;;35.83;19.00;;;;;;;7.08;100.00;101026.66;1449458;90;21280;-80
2022/11/09 06:37:40;;;;;;;31.30;17.40;;;;;;;7.11;100.00;101030.41;1440572;90;21436;-81
2022/11/09 06:40:08;;;;;;;27.40;16.47;;;;;;;7.17;100.00;101038.70;1440055;90;21435;-80
2022/11/09 06:42:34;;;;;;;22.80;17.37;;;;;;;7.18;100.00;101040.37;1429929;91;21383;-79
2022/11/09 06:45:00;;;;;;;26.13;16.33;;;;;;;7.18;100.00;101037.73;1431192;91;22240;-80
2022/11/09 06:47:28;;;;;;;30.97;18.57;;;;;;;7.22;100.00;101041.84;1430469;91;21501;-80
2022/11/09 06:49:54;;;;;;;27.23;18.67;;;;;;;7.26;100.00;101044.25;1439233;90;21407;-79
2022/11/09 06:52:20;;;;;;;26.43;18.50;;;;;;;7.32;100.00;101042.48;1439960;90;21427;-78
2022/11/09 06:54:46;;;;;;;24.90;19.27;;;;;;;7.38;100.00;101043.36;1439748;90;21405;-80
2022/11/09 06:57:12;;;;;;;24.80;16.20;;;;;;;7.41;100.00;101037.86;1435827;89;21347;-80
2022/11/09 06:59:38;;;;;;;24.70;17.23;;;;;;;7.40;100.00;101042.30;1432144;91;22324;-80
2022/11/09 07:02:04;;;;;;;21.33;16.73;;;;;;;7.42;100.00;101035.13;1433889;91;21422;-80
2022/11/09 07:04:30;;;;;;;28.00;16.13;;;;;;;7.43;100.00;101030.70;1435904;91;22281;-80
2022/11/09 07:06:55;;;;;;;25.57;18.43;;;;;;;7.43;100.00;101029.38;1442888;89;21321;-80
2022/11/09 07:09:21;;;;;;;20.10;15.37;;;;;;;7.43;100.00;101031.53;1458727;89;22306;-80
2022/11/09 07:11:48;;;;;;;26.20;17.40;;;;;;;7.45;100.00;101030.09;1456286;89;21455;-79
2022/11/09 07:14:14;;;;;;;20.67;15.07;;;;;;;7.50;100.00;101027.96;1459236;89;21419;-79
2022/11/09 07:16:40;;;;;;;23.87;17.33;;;;;;;7.55;100.00;101025.84;1457037;89;21352;-78
2022/11/09 07:19:06;;;;;;;23.27;16.27;;;;;;;7.62;100.00;101024.45;1462511;89;21375;-80
2022/11/09 07:21:33;;;;;;;23.17;16.80;;;;;;;7.68;100.00;101023.98;1460677;89;21470;-79
2022/11/09 07:23:59;;;;;;;28.60;18.50;;;;;;;7.73;100.00;101032.01;1458373;89;21606;-79
2022/11/09 07:26:26;;;;;;;28.03;17.97;;;;;;;7.77;100.00;101033.45;1460952;88;21531;-80
2022/11/09 07:28:52;;;;;;;23.90;16.80;;;;;;;7.82;100.00;101026.87;1448782;90;21400;-79
2022/11/09 07:31:18;;;;;;;21.77;15.43;;;;;;;7.84;100.00;101025.46;1442032;90;21399;-78
2022/11/09 07:33:44;;;;;;;20.63;15.90;;;;;;;7.89;100.00;101027.28;1429650;90;21427;-83
2022/11/09 07:36:10;;;;;;;21.50;16.03;;;;;;;7.95;100.00;101020.22;1424030;91;22306;-83
2022/11/09 07:38:36;;;;;;;25.57;17.33;;;;;;;8.00;100.00;101021.17;1412964;90;21362;-81
2022/11/09 07:41:02;;;;;;;24.33;16.83;;;;;;;8.02;100.00;101020.10;1446388;90;22338;-78
2022/11/09 07:43:29;;;;;;;26.03;17.57;;;;;;;8.01;100.00;101017.12;1441827;90;21956;-75
2022/11/09 07:45:55;;;;;;;26.17;18.27;;;;;;;8.02;100.00;101020.59;1446146;90;21740;-76
2022/11/09 07:48:22;;;;;;;25.23;18.77;;;;;;;8.04;100.00;101018.20;1445641;90;22449;-76
2022/11/09 07:50:49;;;;;;;23.37;16.33;;;;;;;8.09;100.00;101016.06;1444272;90;21606;-75
2022/11/09 07:53:16;;;;;;;22.93;16.17;;;;;;;8.16;100.00;101021.70;1447593;90;21539;-76
2022/11/09 07:55:43;;;;;;;19.97;14.53;;;;;;;8.18;100.00;101021.59;1447085;88;22440;-77
2022/11/09 07:58:14;;;;;;;25.30;18.10;;;;;;;8.25;100.00;101022.78;1466439;88;21450;-77
2022/11/09 08:00:42;;;;;;;22.27;16.80;;;;;;;8.27;100.00;101011.65;1442629;88;21376;-76
2022/11/09 08:03:09;;;;;;;24.90;17.40;;;;;;;8.33;100.00;101015.12;1392019;88;21362;-87
2022/11/09 08:05:36;;;;;;;25.53;18.50;;;;;;;8.40;100.00;101016.83;1451691;88;21360;-87
2022/11/09 08:08:07;;;;;;;22.23;17.43;;;;;;;8.39;100.00;101013.36;1473515;88;21530;-87
2022/11/09 08:10:35;;;;;;;22.15;15.85;;;;;;;8.35;100.00;101007.95;1452561;88;22249;-88
2022/11/09 08:13:05;;;;;;;23.03;16.03;;;;;;;8.36;100.00;101003.85;1446213;88;22582;-87
2022/11/09 08:15:32;;;;;;;21.60;15.85;;;;;;;8.48;100.00;100999.45;1446223;88;21517;-88
2022/11/09 08:18:02;;;;;;;22.27;16.63;;;;;;;8.48;100.00;100999.45;1428273;91;21450;-88
2022/11/09 08:20:29;;;;;;;28.07;18.83;;;;;;;8.66;100.00;101014.79;1447083;89;21472;-85
2022/11/09 08:22:55;;;;;;;25.23;18.07;;;;;;;8.75;100.00;101018.88;1429545;90;21443;-87
2022/11/09 08:25:22;;;;;;;25.93;19.67;;;;;;;8.79;100.00;101015.03;1430987;90;21619;-86
2022/11/09 08:27:48;;;;;;;25.07;18.87;;;;;;;8.83;100.00;101015.62;1444774;90;21362;-86
2022/11/09 08:30:20;;;;;;;24.77;18.67;;;;;;;8.80;100.00;101016.72;1449809;88;21406;-89
2022/11/09 08:32:48;;;;;;;22.63;16.70;;;;;;;8.80;100.00;101021.14;1444814;89;21465;-88
2022/11/09 08:35:21;;;;;;;24.13;16.60;;;;;;;8.80;100.00;101019.36;1430232;90;21376;-89
2022/11/09 08:37:50;;;;;;;22.33;17.00;;;;;;;8.80;100.00;101022.00;1451101;88;21331;-88
2022/11/09 08:40:21;;;;;;;26.07;17.90;;;;;;;8.83;100.00;101027.49;1445586;90;22292;-87
2022/11/09 08:42:47;;;;;;;22.45;17.02;;;;;;;8.87;100.00;101024.98;1446305;90;21434;-88
2022/11/09 08:45:19;;;;;;;21.97;16.60;;;;;;;8.88;100.00;101026.66;1429726;90;21420;-88
2022/11/09 08:47:46;;;;;;;22.53;17.20;;;;;;;8.84;100.00;101017.31;1432856;90;21377;-87
2022/11/09 08:50:14;;;;;;;21.27;17.07;;;;;;;8.90;100.00;101015.50;1452850;88;21351;-89
2022/11/09 08:52:40;;;;;;;18.47;14.20;;;;;;;8.98;100.00;101018.86;1458879;88;21405;-89
2022/11/09 08:55:07;;;;;;;25.97;17.30;;;;;;;9.06;100.00;101020.37;1444213;90;21354;-87
2022/11/09 08:57:34;;;;;;;21.20;17.03;;;;;;;9.10;100.00;101022.31;1447368;88;21346;-84
2022/11/09 09:00:00;;;;;;;23.63;17.67;;;;;;;9.15;100.00;101013.52;1472698;88;21485;-91
2022/11/09 09:02:26;;;;;;;23.63;17.60;;;;;;;9.18;100.00;101019.41;1478126;88;22284;-90
2022/11/09 09:04:52;;;;;;;25.97;19.97;;;;;;;9.16;100.00;101017.85;1476714;88;21448;-91
2022/11/09 09:07:18;;;;;;;24.97;17.03;;;;;;;9.19;100.00;101021.08;1454875;88;21651;-88
2022/11/09 09:09:44;;;;;;;26.20;17.27;;;;;;;9.19;100.00;101024.20;1467265;88;21375;-91
2022/11/09 09:12:10;;;;;;;20.67;16.27;;;;;;;9.23;100.00;101016.37;1473274;88;22394;-89
2022/11/09 09:14:36;;;;;;;23.50;16.20;;;;;;;9.24;100.00;101014.12;1476079;88;21308;-90
2022/11/09 09:17:03;;;;;;;22.40;16.80;;;;;;;9.34;100.00;101018.16;1474842;88;21578;-89
2022/11/09 09:19:29;;;;;;;19.10;15.63;;;;;;;9.44;100.00;101021.25;1451532;88;22085;-89
2022/11/09 09:21:55;;;;;;;19.90;15.33;;;;;;;9.49;100.00;101019.53;1472775;88;21419;-87
2022/11/09 09:24:22;;;;;;;20.00;15.87;;;;;;;9.55;100.00;101023.47;1437922;88;22410;-89
2022/11/09 09:26:48;;;;;;;42.10;28.23;;;;;;;9.55;99.48;101020.37;1474113;88;21337;-89
2022/11/09 09:29:15;;;;;;;24.47;17.73;;;;;;;9.58;99.51;101017.94;1435390;89;21296;-89
2022/11/09 09:31:41;;;;;;;19.23;15.13;;;;;;;9.64;100.00;101019.61;1428153;90;21456;-88
2022/11/09 09:34:07;;;;;;;24.30;17.80;;;;;;;9.66;98.27;101016.82;1444742;88;21497;-90
2022/11/09 09:36:36;;;;;;;27.23;18.93;;;;;;;9.76;99.05;101020.39;1438690;90;21523;-89
2022/11/09 09:39:03;;;;;;;20.63;14.67;;;;;;;9.81;97.40;101018.21;1432695;90;21548;-87
2022/11/09 09:41:59;;;;;;;18.93;15.37;;;;;;;9.88;97.98;101013.23;1446541;90;21399;-89
2022/11/09 09:44:46;;;;;;;15.40;13.40;;;;;;;9.90;97.34;101016.11;1388234;92;22193;-89
2022/11/09 09:47:18;;;;;;;16.93;12.90;;;;;;;9.89;96.55;101014.41;1392407;93;21557;-88
2022/11/09 09:50:20;;;;;;;19.80;14.23;;;;;;;9.94;97.06;101009.59;1378700;92;21450;-88
2022/11/09 09:53:19;;;;;;;16.87;13.53;;;;;;;9.99;97.05;101008.38;1338212;98;21596;-90
2022/11/09 09:55:53;;;;;;;15.87;12.80;;;;;;;10.07;97.39;101005.89;1365793;92;22317;-88
2022/11/09 09:58:31;;;;;;;15.23;12.37;;;;;;;10.11;96.25;101003.36;1376978;95;21948;-91
2022/11/09 10:01:20;;;;;;;16.03;12.63;;;;;;;10.20;95.57;100997.28;1403067;92;21468;-91
2022/11/09 10:03:48;;;;;;;19.27;14.93;;;;;;;10.21;94.56;100997.62;1371634;95;22341;-92
2022/11/09 10:06:43;;;;;;;17.60;14.23;;;;;;;10.24;94.71;100999.17;1399941;92;22293;-91
2022/11/09 10:09:23;;;;;;;17.83;14.40;;;;;;;10.25;94.15;100992.44;1398981;92;21636;-90
2022/11/09 10:12:19;;;;;;;18.35;14.50;;;;;;;10.29;94.42;100993.88;1380401;92;21595;-90
2022/11/09 10:15:06;;;;;;;18.87;15.90;;;;;;;10.35;94.41;100992.02;1388761;90;21583;-91
2022/11/09 10:17:55;;;;;;;15.77;13.33;;;;;;;10.36;94.18;100996.84;1448587;90;24159;-87
2022/11/09 10:20:35;;;;;;;22.47;13.80;;;;;;;10.40;93.83;100999.57;1446425;90;21406;-90
2022/11/09 10:23:22;;;;;;;;;;;;;;;10.47;94.34;100995.90;1433843;90;22412;-91
2022/11/09 10:25:57;;;;;;;20.00;14.07;;;;;;;10.46;91.66;100992.42;1362081;93;20414;-91
2022/11/09 10:28:27;;;;;;;18.60;13.47;;;;;;;10.46;92.47;100991.59;1398469;92;21940;-91
2022/11/09 10:30:54;;;;;;;19.62;13.95;;;;;;;10.45;91.78;100989.92;1402153;92;22234;-90
2022/11/09 10:33:22;;;;;;;19.40;13.37;;;;;;;10.42;92.09;100984.90;1418992;91;21365;-92
2022/11/09 10:36:12;;;;;;;18.50;12.77;;;;;;;10.45;91.78;100984.62;1417127;91;21377;-91
2022/11/09 10:38:43;;;;;;;20.48;14.25;;;;;;;10.48;91.51;100984.36;1373480;95;22682;-90
2022/11/09 10:41:47;;;;;;;20.43;14.67;;;;;;;10.52;91.70;100977.81;1399157;91;21573;-92
2022/11/09 10:44:17;;;;;;;21.03;15.17;;;;;;;10.58;91.57;100973.31;1380932;94;22365;-88
2022/11/09 10:47:11;;;;;;;22.73;17.20;;;;;;;10.65;91.32;100967.84;1373471;94;21650;-88
2022/11/09 10:49:39;;;;;;;23.13;16.93;;;;;;;10.79;91.84;100970.61;1394294;94;22573;-90
2022/11/09 10:52:12;;;;;;;19.77;15.03;;;;;;;10.81;89.97;100969.95;1374521;94;21504;-92
2022/11/09 10:54:38;;;;;;;17.93;14.50;;;;;;;10.83;90.16;100964.88;1360887;94;22384;-92
2022/11/09 10:57:21;;;;;;;20.43;16.03;;;;;;;10.93;90.12;100964.89;1384543;94;21504;-93
2022/11/09 10:59:53;;;;;;;22.30;17.67;;;;;;;11.04;90.49;100961.29;1392812;93;21518;-92
2022/11/09 11:02:34;;;;;;;23.10;17.70;;;;;;;11.02;89.15;100956.64;1386145;94;21450;-91
2022/11/09 11:05:12;;;;;;;24.63;19.07;;;;;;;11.15;89.29;100965.14;1376683;94;21465;-90
2022/11/09 11:07:38;;;;;;;29.63;21.87;;;;;;;11.16;89.05;100964.64;1354343;96;22361;-92
2022/11/09 11:10:19;;;;;;;28.67;21.73;;;;;;;11.02;88.31;100952.17;1355097;96;21429;-93
2022/11/09 11:12:53;;;;;;;26.57;21.37;;;;;;;11.11;89.48;100948.36;1365485;94;22368;-91
2022/11/09 11:15:24;;;;;;;21.57;17.30;;;;;;;11.21;90.07;100950.01;1382526;95;22384;-94
2022/11/09 11:18:05;;;;;;;34.33;28.60;;;;;;;11.25;90.15;100951.42;1431960;95;21657;-92
2022/11/09 11:20:34;;;;;;;23.73;20.05;;;;;;;11.33;88.26;100949.37;1356980;93;21391;-92
2022/11/09 11:23:14;;;;;;;22.83;17.27;;;;;;;11.50;89.06;100954.47;1445001;88;22291;-91
2022/11/09 11:25:59;;;;;;;22.93;16.93;;;;;;;11.60;87.59;100956.63;1447920;88;21393;-92
2022/11/09 11:28:46;;;;;;;25.87;21.07;;;;;;;11.80;88.66;100953.96;1446702;89;21653;-93
2022/11/09 11:31:19;;;;;;;27.93;22.37;;;;;;;11.93;86.98;100949.20;1437828;89;21407;-92